createdAt,value
2023-11-30T00:02:10.341Z,12.55
2023-11-30T00:07:13.816Z,12.53
2023-11-30T00:12:16.078Z,12.54
2023-11-30T00:17:18.273Z,12.56
2023-11-30T00:22:20.263Z,12.55
2023-11-30T00:27:22.439Z,12.55
2023-11-30T00:32:24.401Z,12.55
2023-11-30T00:37:26.557Z,12.53
2023-11-30T00:42:28.860Z,12.52
2023-11-30T00:47:31.146Z,12.50
2023-11-30T00:52:33.305Z,12.48
2023-11-30T00:57:35.584Z,12.48
2023-11-30T01:02:38.699Z,12.48
2023-11-30T01:07:40.685Z,12.48
2023-11-30T01:12:42.822Z,12.52
2023-11-30T01:17:44.962Z,12.56
2023-11-30T01:22:46.943Z,12.59
2023-11-30T01:27:49.002Z,12.64
2023-11-30T01:32:51.387Z,12.68
2023-11-30T01:37:53.634Z,12.73
2023-11-30T01:42:55.633Z,12.75
2023-11-30T01:47:58.124Z,12.76
2023-11-30T01:53:00.372Z,12.81
2023-11-30T01:58:04.533Z,12.85
2023-11-30T02:05:14.197Z,12.91
2023-11-30T02:10:16.403Z,12.95
2023-11-30T02:15:18.724Z,12.94
2023-11-30T02:20:21.168Z,12.95
2023-11-30T02:25:23.270Z,12.95
2023-11-30T02:30:25.783Z,12.96
2023-11-30T02:35:28.027Z,12.92
2023-11-30T02:40:30.248Z,12.86
2023-11-30T02:45:32.628Z,12.74
2023-11-30T02:50:34.908Z,12.67
2023-11-30T02:55:36.762Z,12.58
2023-11-30T03:00:38.772Z,12.53
2023-11-30T03:05:40.893Z,12.49
2023-11-30T03:10:43.169Z,12.46
2023-11-30T03:15:47.172Z,12.43
2023-11-30T03:20:49.393Z,12.42
2023-11-30T03:25:51.292Z,12.41
2023-11-30T03:30:53.594Z,12.39
2023-11-30T03:35:57.088Z,12.40
2023-11-30T03:40:59.732Z,12.39
2023-11-30T03:46:01.871Z,12.37
2023-11-30T03:51:04.036Z,12.34
2023-11-30T03:56:06.589Z,12.31
2023-11-30T04:01:08.783Z,12.29
2023-11-30T04:06:18.322Z,12.28
2023-11-30T04:11:20.798Z,12.26
2023-11-30T04:16:23.913Z,12.22
2023-11-30T04:21:26.162Z,12.21
2023-11-30T04:26:28.494Z,12.18
2023-11-30T04:31:31.146Z,12.13
2023-11-30T04:36:33.414Z,12.11
2023-11-30T04:41:36.418Z,12.04
2023-11-30T04:46:38.705Z,11.99
2023-11-30T04:51:40.749Z,11.99
2023-11-30T04:56:42.847Z,11.96
2023-11-30T05:07:38.314Z,11.90
2023-11-30T05:12:40.680Z,11.86
2023-11-30T05:37:55.656Z,11.70
2023-11-30T05:42:57.826Z,11.70
2023-11-30T05:47:59.841Z,11.68
2023-11-30T05:53:03.022Z,11.67
2023-11-30T05:58:05.026Z,11.65
2023-11-30T06:03:08.783Z,11.62
2023-11-30T06:08:12.034Z,11.61
2023-11-30T06:13:15.612Z,11.64
2023-11-30T06:18:17.628Z,11.67
2023-11-30T06:23:20.702Z,11.73
2023-11-30T06:28:22.922Z,11.78
2023-11-30T06:33:24.940Z,11.88
2023-11-30T06:38:27.511Z,11.96
2023-11-30T06:43:30.087Z,12.02
2023-11-30T06:48:32.363Z,12.11
2023-11-30T06:53:34.317Z,12.23
2023-11-30T06:58:36.393Z,12.32
2023-11-30T07:03:42.762Z,12.33
2023-11-30T07:08:47.088Z,12.31
2023-11-30T07:13:49.178Z,12.28
2023-11-30T07:18:52.995Z,12.30
2023-11-30T07:23:55.723Z,12.38
2023-11-30T07:28:57.940Z,12.56
2023-11-30T07:34:00.120Z,12.68
2023-11-30T07:39:02.552Z,12.83
2023-11-30T07:44:04.700Z,12.89
2023-11-30T07:49:06.943Z,13.02
2023-11-30T07:54:09.539Z,13.28
2023-11-30T07:59:13.948Z,16.52
2023-11-30T08:04:16.082Z,19.76
2023-11-30T08:09:18.478Z,21.98
2023-11-30T08:14:20.827Z,22.95
2023-11-30T08:19:23.140Z,24.21
2023-11-30T08:24:25.223Z,25.25
2023-11-30T08:29:29.510Z,25.73
2023-11-30T08:34:31.754Z,26.01
2023-11-30T08:39:34.220Z,25.82
2023-11-30T08:44:36.903Z,25.37
2023-11-30T08:49:40.160Z,24.58
2023-11-30T08:54:42.465Z,24.29
2023-11-30T08:59:45.175Z,24.21
2023-11-30T09:04:47.350Z,24.00
2023-11-30T09:09:51.556Z,23.80
2023-11-30T09:14:54.304Z,23.15
2023-11-30T09:19:56.406Z,22.75
2023-11-30T09:24:58.405Z,22.54
2023-11-30T09:30:02.487Z,22.53
2023-11-30T09:35:06.081Z,22.56
2023-11-30T09:40:10.610Z,22.60
2023-11-30T09:45:12.713Z,22.67
2023-11-30T09:50:14.924Z,22.75
2023-11-30T09:55:17.173Z,22.82
2023-11-30T10:00:21.660Z,22.79
2023-11-30T10:05:25.118Z,22.72
2023-11-30T10:10:27.270Z,22.78
2023-11-30T10:15:29.613Z,22.77
2023-11-30T10:20:31.763Z,22.80
2023-11-30T10:25:33.952Z,22.80
2023-11-30T10:30:40.989Z,22.95
2023-11-30T10:35:49.771Z,23.04
2023-11-30T10:40:56.965Z,23.12
2023-11-30T10:46:00.559Z,23.20
2023-11-30T10:51:05.339Z,23.25
2023-11-30T10:56:11.750Z,23.30
2023-11-30T11:01:17.205Z,23.34
2023-11-30T11:06:25.596Z,23.41
2023-11-30T11:11:31.586Z,23.39
2023-11-30T11:16:45.390Z,23.23
2023-11-30T11:21:49.434Z,23.09
2023-11-30T11:27:00.975Z,23.20
2023-11-30T11:32:03.398Z,22.90
2023-11-30T11:37:05.578Z,22.76
2023-11-30T11:42:07.646Z,22.76
2023-11-30T11:47:09.889Z,22.91
2023-11-30T11:52:19.077Z,23.03
2023-11-30T11:57:31.609Z,23.25
2023-11-30T12:02:37.066Z,23.39
2023-11-30T12:07:50.085Z,23.68
2023-11-30T12:12:52.458Z,23.99
2023-11-30T12:17:55.052Z,23.81
2023-11-30T12:22:57.342Z,23.33
2023-11-30T12:27:59.536Z,23.24
2023-11-30T12:33:02.515Z,23.19
2023-11-30T12:38:04.935Z,22.84
2023-11-30T12:43:06.999Z,22.40
2023-11-30T12:48:09.437Z,22.11
2023-11-30T12:53:11.970Z,22.20
2023-11-30T12:58:14.094Z,22.23
2023-11-30T13:03:16.180Z,22.35
2023-11-30T13:08:19.334Z,22.43
2023-11-30T13:13:28.655Z,22.33
2023-11-30T13:18:36.384Z,22.32
2023-11-30T13:23:38.597Z,21.74
2023-11-30T13:28:47.579Z,21.37
2023-11-30T13:33:54.107Z,21.23
2023-11-30T13:38:56.399Z,21.32
2023-11-30T13:43:58.828Z,21.30
2023-11-30T13:49:01.038Z,21.31
2023-11-30T13:54:03.668Z,21.41
2023-11-30T13:59:06.974Z,21.39
2023-11-30T14:04:09.649Z,21.35
2023-11-30T14:09:15.882Z,21.19
2023-11-30T14:14:18.050Z,21.05
2023-11-30T14:19:20.448Z,20.86
2023-11-30T14:24:22.735Z,20.72
2023-11-30T14:29:25.474Z,20.49
2023-11-30T14:34:27.676Z,20.14
2023-11-30T14:39:29.965Z,19.93
2023-11-30T14:44:32.238Z,19.69
2023-11-30T14:49:34.602Z,19.37
2023-11-30T14:54:38.926Z,19.23
2023-11-30T14:59:41.141Z,19.23
2023-11-30T15:04:43.201Z,19.08
2023-11-30T15:09:45.893Z,18.96
2023-11-30T15:14:48.449Z,18.79
2023-11-30T15:19:52.553Z,18.68
2023-11-30T15:24:55.163Z,18.57
2023-11-30T15:29:57.270Z,18.50
2023-11-30T15:35:00.658Z,18.45
2023-11-30T15:40:08.709Z,18.40
2023-11-30T15:45:13.909Z,18.36
2023-11-30T15:50:16.991Z,18.33
2023-11-30T15:55:19.125Z,18.29
2023-11-30T16:00:21.855Z,18.27
2023-11-30T16:05:25.173Z,18.21
2023-11-30T16:10:27.485Z,18.20
2023-11-30T16:15:29.654Z,18.17
2023-11-30T16:20:31.700Z,18.11
2023-11-30T16:25:33.860Z,18.10
2023-11-30T16:30:36.082Z,18.04
2023-11-30T16:35:38.359Z,17.98
2023-11-30T16:40:40.926Z,17.95
2023-11-30T16:45:45.037Z,17.90
2023-11-30T16:50:47.568Z,17.86
2023-11-30T16:55:49.779Z,17.85
2023-11-30T17:00:51.926Z,17.87
2023-11-30T17:05:54.357Z,17.87
2023-11-30T17:10:56.617Z,17.83
2023-11-30T17:16:01.495Z,17.81
2023-11-30T17:21:03.874Z,17.77
2023-11-30T17:26:06.385Z,17.74
2023-11-30T17:31:10.662Z,17.75
2023-11-30T17:36:12.868Z,17.75
2023-11-30T17:41:15.045Z,17.75
2023-11-30T17:46:17.255Z,17.72
2023-11-30T17:51:19.756Z,17.68
2023-11-30T17:56:22.095Z,17.65
2023-11-30T18:01:24.198Z,17.62
2023-11-30T18:06:26.987Z,17.57
2023-11-30T18:11:29.399Z,17.53
2023-11-30T18:16:31.455Z,17.52
2023-11-30T18:21:34.776Z,17.52
2023-11-30T18:26:37.156Z,17.54
2023-11-30T18:31:39.412Z,17.54
2023-11-30T18:36:41.696Z,17.49
2023-11-30T18:41:44.270Z,17.45
2023-11-30T18:46:46.448Z,17.45
2023-11-30T18:51:48.488Z,17.48
2023-11-30T18:56:50.619Z,17.48
2023-11-30T19:01:52.987Z,17.50
2023-11-30T19:06:55.189Z,17.54
2023-11-30T19:11:57.516Z,17.57
2023-11-30T19:16:59.776Z,17.59
2023-11-30T19:22:01.853Z,17.60
2023-11-30T19:27:04.205Z,17.62
2023-11-30T19:32:06.763Z,17.65
2023-11-30T19:37:09.110Z,17.70
2023-11-30T19:42:11.541Z,17.75
2023-11-30T19:47:14.202Z,17.76
2023-11-30T19:52:16.323Z,17.77
2023-11-30T19:57:18.452Z,17.79
2023-11-30T20:02:20.486Z,17.82
2023-11-30T20:07:23.622Z,17.82
2023-11-30T20:12:25.660Z,17.86
2023-11-30T20:17:28.234Z,17.89
2023-11-30T20:22:30.467Z,17.91
2023-11-30T20:27:33.278Z,17.94
2023-11-30T20:32:35.398Z,17.97
2023-11-30T20:37:37.772Z,18.01
2023-11-30T20:42:40.080Z,18.04
2023-11-30T20:47:42.441Z,18.07
2023-11-30T20:52:44.545Z,18.07
2023-11-30T20:57:46.813Z,18.07
2023-11-30T21:02:49.269Z,18.13
2023-11-30T21:07:51.575Z,18.17
2023-11-30T21:12:54.077Z,18.21
2023-11-30T21:17:56.224Z,18.25
2023-11-30T21:22:58.809Z,18.29
2023-11-30T21:28:01.086Z,18.32
2023-11-30T21:33:03.313Z,18.36
2023-11-30T21:38:05.558Z,18.38
2023-11-30T21:43:08.030Z,18.40
2023-11-30T21:48:10.428Z,18.42
2023-11-30T21:53:12.810Z,18.43
2023-11-30T21:58:15.393Z,18.44
2023-11-30T22:03:18.697Z,18.44
2023-11-30T22:08:21.558Z,18.46
2023-11-30T22:13:25.153Z,18.49
2023-11-30T22:18:30.632Z,18.48
2023-11-30T22:23:33.890Z,18.53
2023-11-30T22:28:36.771Z,18.54
2023-11-30T22:33:39.608Z,18.59
2023-11-30T22:38:46.307Z,18.65
2023-11-30T22:43:56.269Z,18.68
2023-11-30T22:48:58.658Z,18.74
2023-11-30T22:54:01.034Z,18.77
2023-11-30T22:59:03.350Z,18.81
2023-11-30T23:04:05.795Z,18.82
2023-11-30T23:09:12.207Z,18.84
2023-11-30T23:14:16.072Z,18.86
2023-11-30T23:19:32.705Z,18.89
2023-11-30T23:24:34.943Z,18.88
2023-11-30T23:29:37.945Z,18.88
2023-11-30T23:34:48.187Z,18.89
2023-11-30T23:39:57.597Z,18.90
2023-11-30T23:45:01.971Z,18.92
2023-11-30T23:50:04.690Z,18.91
2023-11-30T23:55:07.683Z,18.91
